Aeroporto :
LOGIN :

Iscrizione | Disclaimer

   EN    FR    IT 

 










Sommario :    VFR   VFR Marginale   IFR   IFR Intensivo   IFR Molto Intensivo
Visibilità : 
Base nubi : 
>= 8 km
>= 3000ft
5 / 8 km
1000 / 3000 ft
1500m / 5 km
500 / 1000 ft
800 / 1500m
200 / 500 ft
< 800m
< 200 ft
Simboli :   Temporali  Nebbia  Neve Forte  Precipitazioni Forti  Vento > 20 kt
SIGMETs :   Varie  Temporali  Ghiacco  Turbolenza  Onda orograficha  Ceneri Vulcaniche







- Altitudine del aeroporto : 14 ft
- Codice IATA : BRE


EDDW - Bremen Neuenland

ULTIMO METAR :
  • 192150Z 36003KT 270V040 CAVOK 17/13 Q1005

METARs OBSOLETI :
  • 192120Z 01004KT 310V050 CAVOK 16/13 Q1005
  • 192050Z 35004KT CAVOK 15/13 Q1005 NOSIG
  • 192020Z 33005KT 9999 FEW033 16/13 Q1004 NOSIG
  • 191950Z 31006KT 9999 FEW033 16/13 Q1004 NOSIG
  • 191920Z 31008KT 9999 FEW033 FEW038CB 16/13 Q1004 NOSIG

TAF TAF EDDW
Valido dal 19 a 18 ore il 20 a 18 ore UTC


191700Z 1918/2018 30009KT 9999 FEW030
TEMPO 1918/1920 07020G35KT TSRA SCT025CB
BECMG 1918/1920 04007KT
PROB30
TEMPO 1919/1922 SHRA SCT030CB
BECMG 1923/2002 2000 BCFG OVC003
PROB30
TEMPO 2002/2006 0500 FG OVC001
BECMG 2007/2010 9999 BKN015
Nessun NOTAM noto per questo aeroporto.



MetMap, La meteo Aeronautica in un colpo d'occhio ! - Copyright ORBIFLY Dicembre 2007 - Disclaimer

ORBIFLY MET'MAP TEAM :

Programmazione e sviluppo : Alexandra Zaïnal
Concezione e sviluppo : Baudouin d'Aumeries
Co-Programmazione e sviluppo : Marc-Olivier Méhu
Supporto tecnico e logistico : Manuel Goepfert
Aiuto per la traduzione : Arnaldo La Scala

Contatto : metmap@orbifly.com




FONTI E CREDITI :

   NOAA